Main page
METAR-TAF:

METAR-TAF

Airports :

Fairfield Municipal Airport

Fairfield, Illinois, United States

latitude: 38-22-43N, longitude: 088-24-46W, elevation: 436 ft

Current weather observation

The report was made 10 minutes ago, at 05:15 UTC
Calm wind
Temperature 75°F
Humidity 78%
Pressure 30.25 in. Hg
Visibility: 10 miles
Clear sky

METAR: KFWC 200515Z AUTO 00000KT 10SM CLR 24/20 A3025 RMK AO2 T02380201

Time: 00:25 (05:25 UTC)


TAF: missing

Weather observations and forecasts of more than 4000 airports (METAR and TAF reports).

The available stations are represented by yellow and red dots on the map.

Hover mouse over dot to see the name of the station.

Then click to see weather observations and forecasts.

To change the map : click on the green buttons with a black cross to zoom in, on the green button with a dash to zoom out, or on the green arrows for adjacent maps.


METAR-TAF: